KEVW/EVW METAR and TAF weather

Enter ICAO airport designator
Station Type Date Time Source
KEVW METAR 2019/08/23 14:53 UTC NOAA

KEVW 231453Z AUTO VRB03KT 10SM CLR 15/03 A3015 RMK AO2 SLP119 T01500033 51007


Station Type Date Time Source
KEVW Decoded METAR 2019/08/23 14:53 UTC NOAA

Station name not available
Aug 23, 2019 - 10:53 AM EDT / 2019.08.23 1453 UTC
Wind: Variable at 3 MPH (3 KT):0
Visibility: 10 mile(s):0
Sky conditions: clear
Temperature: 59.0 F (15.0 C)
Dew Point: 37.9 F (3.3 C)
Relative Humidity: 45%
Pressure (altimeter): 30.15 in. Hg (1020 hPa)
Pressure tendency: 0.02 inches (0.7 hPa) higher than three hours ago
ob: KEVW 231453Z AUTO VRB03KT 10SM CLR 15/03 A3015 RMK AO2 SLP119 T01500033 51007
cycle: 15

Station Type Date Time Source
KEVW TAF 2019/08/23 12:22 UTC NOAA

TAF KEVW 231120Z 2312/2412 31006KT P6SM SCT200
FM231900 26015G25KT P6SM SKC
FM240300 21006KT P6SM SKC

Example: see airport list